Ballina, Ireland

7:50 AM GMT on February 28, 2017 (GMT +0000)
Charlestown | | Change Station

Elev 233 ft 53.96 °N, 8.79 °W | Updated 5 seconds ago

Mostly Cloudy
Mostly Cloudy
37.9 °F
Feels Like 38 °F
N
2.2
Wind Variable Wind from WSW
Gusts 9.8 mph

Today
High -- | Low -- °F
--% Chance of Precip.
Yesterday
High -- | Low -- °F
Precip. -- in
Pressure 29.09 in
Visibility 6.2 miles
Clouds Few 1000 ft
Few 1800 ft
Mostly Cloudy 2200 ft
Windchill 38 °F
Dew Point 34 °F
Humidity 86%
Rainfall 0.00 in
Snow Depth Not available.
7:27 AM 6:11 PM
Waxing Crescent, 4% visible
METAR EIKN 280730Z 29014KT 9999 -DZ FEW010 FEW018CB BKN022 03/02 Q0985 BECMG SCT009 BKN020
Pressure 29.09 in
Visibility 6.2 miles
Clouds Few 1000 ft
Few 1800 ft
Mostly Cloudy 2200 ft
Windchill 38 °F
Dew Point 34 °F
Humidity 86%
Rainfall 0.00 in
Snow Depth Not available.
7:27 AM 6:11 PM
Waxing Crescent, 4% visible
METAR EIKN 280730Z 29014KT 9999 -DZ FEW010 FEW018CB BKN022 03/02 Q0985 BECMG SCT009 BKN020

Get Your Daily Forecast Email!

Thanks for signing up!

Be on the lookout for a verification email in your inbox.

You'll start receiving the daily forecast at 8 AM.

×

10-Day Weather Forecast

×

Almanac

Astronomy

Feb. 28, 2017 Rise Set
Actual Time
Civil Twilight
Nautical Twilight
Astronomical Twilight
Moon
Length of Visible Light
Length of Day
Tomorrow will be .
, % of the Moon is Illuminated

Today's Extremes

Country Highs Country Lows

Community

WunderPhotos

Upload Photos

1,962,540 photos uploaded!

WunderBlog® & News

Nearby

Air Quality

  Air Quality AQ Index Pollutant
Not available.

Snow Depth

Station Depth Elevation

Earthquake Activity

City Distance Mag. Time & Date
Minimum magnitude displayed is 2.5.

Coastal Water Temperatures

Place Temperature

Stations

Nearby Weather Stations

Station Location Temp. Windchill Dew Point Humidity Wind Precip. Elev Updated Type